Time;durP1;ratioP1;P1;durP2;ratioP2;P2;SDS_P1;SDS_P2;PMS_P1;PMS_P2;Temp;Humidity;BMP_temperature;BMP_pressure;BME280_temperature;BME280_humidity;BME280_pressure;Samples;Min_cycle;Max_cycle;Signal;HPM_P1;HPM_P2
2022/06/09 00:02:26;;;;;;;;;;;15.00;99.90;;;;;;5113336;28;19984;-65
2022/06/09 00:04:52;;;;;;;;;;;15.00;99.90;;;;;;5112977;28;19924;-66
2022/06/09 00:07:21;;;;;;;;;;;15.00;99.90;;;;;;5113135;28;20043;-66
2022/06/09 00:09:50;;;;;;;;;;;15.00;99.90;;;;;;5113018;28;20018;-66
2022/06/09 00:12:18;;;;;;;;;;;15.10;99.90;;;;;;5113103;28;19931;-65
2022/06/09 00:14:45;;;;;;;;;;;15.00;99.90;;;;;;5112799;28;19977;-66
2022/06/09 00:17:12;;;;;;;;;;;15.10;99.90;;;;;;5113080;28;19928;-66
2022/06/09 00:19:39;;;;;;;;;;;15.10;99.90;;;;;;5112606;28;19984;-66
2022/06/09 00:22:05;;;;;;;;;;;14.90;99.90;;;;;;5112900;28;20384;-65
2022/06/09 00:24:32;;;;;;;;;;;15.00;99.90;;;;;;5113052;28;19923;-66
2022/06/09 00:26:59;;;;;;;;;;;15.10;99.90;;;;;;5112552;28;19969;-66
2022/06/09 00:29:27;;;;;;;;;;;15.10;99.90;;;;;;5112971;28;19928;-66
2022/06/09 00:31:54;;;;;;;;;;;15.10;99.90;;;;;;5113341;28;19928;-65
2022/06/09 00:34:21;;;;;;;;;;;15.00;99.90;;;;;;5112877;28;19924;-66
2022/06/09 00:36:48;;;;;;;;;;;14.90;99.90;;;;;;5112395;28;20395;-66
2022/06/09 00:39:15;;;;;;;;;;;14.90;99.90;;;;;;5112464;28;19924;-66
2022/06/09 00:41:42;;;;;;;;;;;14.90;99.90;;;;;;5112433;28;20403;-66
2022/06/09 00:44:16;;;;;;;;;;;14.90;99.90;;;;;;5112590;28;20303;-65
2022/06/09 00:46:46;;;;;;;;;;;14.80;99.90;;;;;;5112183;28;19982;-66
2022/06/09 00:49:17;;;;;;;;;;;14.80;99.90;;;;;;5112525;28;19981;-66
2022/06/09 00:51:45;;;;;;;;;;;14.80;99.90;;;;;;5112571;28;19923;-65
2022/06/09 00:54:14;;;;;;;;;;;14.80;99.90;;;;;;5112410;28;20010;-66
2022/06/09 00:56:44;;;;;;;;;;;14.80;99.90;;;;;;5112127;28;19924;-66
2022/06/09 00:59:11;;;;;;;;;;;14.80;99.90;;;;;;5112437;28;19927;-65
2022/06/09 01:01:39;;;;;;;;;;;14.70;99.90;;;;;;5112911;28;19977;-65
2022/06/09 01:04:09;;;;;;;;;;;14.70;99.90;;;;;;5111355;28;19924;-65
2022/06/09 01:06:39;;;;;;;;;;;14.60;99.90;;;;;;5112226;28;19968;-66
2022/06/09 01:09:09;;;;;;;;;;;14.60;99.90;;;;;;5112385;28;19924;-66
2022/06/09 01:11:36;;;;;;;;;;;14.60;99.90;;;;;;5112345;28;19924;-66
2022/06/09 01:14:04;;;;;;;;;;;14.70;99.90;;;;;;5112236;28;19924;-66
2022/06/09 01:16:38;;;;;;;;;;;14.80;99.90;;;;;;5112005;28;20388;-66
2022/06/09 01:19:14;;;;;;;;;;;14.60;99.90;;;;;;5112339;28;19963;-65
2022/06/09 01:21:59;;;;;;;;;;;14.60;99.90;;;;;;5112253;28;20367;-66
2022/06/09 01:24:43;;;;;;;;;;;14.70;99.90;;;;;;5111348;28;19946;-66
2022/06/09 01:27:16;;;;;;;;;;;14.70;99.90;;;;;;5112117;28;19923;-65
2022/06/09 01:29:45;;;;;;;;;;;14.60;99.90;;;;;;5112427;28;20349;-65
2022/06/09 01:32:17;;;;;;;;;;;14.60;99.90;;;;;;5112459;28;19928;-65
2022/06/09 01:34:45;;;;;;;;;;;14.50;99.90;;;;;;5111925;28;19927;-65
2022/06/09 01:37:13;;;;;;;;;;;14.50;99.90;;;;;;5112122;28;19973;-66
2022/06/09 01:39:45;;;;;;;;;;;14.60;99.90;;;;;;5111868;28;19923;-66
2022/06/09 01:42:22;;;;;;;;;;;14.60;99.90;;;;;;5111807;28;20433;-65
2022/06/09 01:44:49;;;;;;;;;;;14.50;99.90;;;;;;5111748;28;19977;-66
2022/06/09 01:47:19;;;;;;;;;;;14.50;99.90;;;;;;5112100;28;19928;-66
2022/06/09 01:49:46;;;;;;;;;;;14.40;99.90;;;;;;5111841;28;19924;-65
2022/06/09 01:52:13;;;;;;;;;;;14.50;99.90;;;;;;5111798;28;19981;-65
2022/06/09 01:54:40;;;;;;;;;;;14.40;99.90;;;;;;5111727;28;19963;-65
2022/06/09 01:57:09;;;;;;;;;;;14.40;99.90;;;;;;5111776;28;20395;-66
2022/06/09 01:59:37;;;;;;;;;;;14.40;99.90;;;;;;5111663;28;19923;-65
2022/06/09 02:02:06;;;;;;;;;;;14.40;99.90;;;;;;5111763;28;19928;-67
2022/06/09 02:04:36;;;;;;;;;;;14.50;99.90;;;;;;5111764;28;19969;-68
2022/06/09 02:07:04;;;;;;;;;;;14.50;99.90;;;;;;5111472;28;19928;-68
2022/06/09 02:09:32;;;;;;;;;;;14.40;99.90;;;;;;5111633;28;19930;-68
2022/06/09 02:12:02;;;;;;;;;;;14.40;99.90;;;;;;5111752;28;19923;-67
2022/06/09 02:14:30;;;;;;;;;;;14.50;99.90;;;;;;5112271;28;19924;-68
2022/06/09 02:16:57;;;;;;;;;;;14.40;99.90;;;;;;5115172;28;20391;-67
2022/06/09 02:19:24;;;;;;;;;;;14.50;99.90;;;;;;5115123;28;20441;-67
2022/06/09 02:21:52;;;;;;;;;;;14.50;99.90;;;;;;5115465;28;19928;-67
2022/06/09 02:24:19;;;;;;;;;;;14.40;99.90;;;;;;5115794;28;19931;-68
2022/06/09 02:26:46;;;;;;;;;;;14.40;99.90;;;;;;5115057;28;19969;-69
2022/06/09 02:29:14;;;;;;;;;;;14.50;99.90;;;;;;5115152;28;20474;-68
2022/06/09 02:31:41;;;;;;;;;;;14.50;99.90;;;;;;5115429;28;19924;-68
2022/06/09 02:34:09;;;;;;;;;;;14.40;99.90;;;;;;5115182;28;19982;-68
2022/06/09 02:36:36;;;;;;;;;;;14.50;99.90;;;;;;5115257;28;20345;-68
2022/06/09 02:39:05;;;;;;;;;;;14.40;99.90;;;;;;5115135;28;19923;-67
2022/06/09 02:41:32;;;;;;;;;;;14.50;99.90;;;;;;5115033;28;19927;-67
2022/06/09 02:43:59;;;;;;;;;;;14.50;99.90;;;;;;5114890;28;19968;-67
2022/06/09 02:46:26;;;;;;;;;;;14.50;99.90;;;;;;5114429;28;20388;-69
2022/06/09 02:48:53;;;;;;;;;;;14.50;99.90;;;;;;5114678;28;19930;-68
2022/06/09 02:51:23;;;;;;;;;;;14.50;99.90;;;;;;5114721;28;20326;-67
2022/06/09 02:53:50;;;;;;;;;;;14.40;99.90;;;;;;5114816;28;19924;-69
2022/06/09 02:56:18;;;;;;;;;;;14.50;99.90;;;;;;5114471;28;20376;-68
2022/06/09 02:58:45;;;;;;;;;;;14.50;99.90;;;;;;5114417;28;19977;-68
2022/06/09 03:01:12;;;;;;;;;;;14.50;99.90;;;;;;5114747;28;19931;-68
2022/06/09 03:03:39;;;;;;;;;;;14.60;99.90;;;;;;5114678;28;19924;-68
2022/06/09 03:06:06;;;;;;;;;;;14.50;99.90;;;;;;5114544;28;20414;-67
2022/06/09 03:08:33;;;;;;;;;;;14.40;99.90;;;;;;5114415;28;19927;-68
2022/06/09 03:11:00;;;;;;;;;;;14.40;99.90;;;;;;5114551;28;19924;-67
2022/06/09 03:13:28;;;;;;;;;;;14.40;99.90;;;;;;5114345;28;20379;-68
2022/06/09 03:15:55;;;;;;;;;;;14.40;99.90;;;;;;5114180;28;19984;-68
2022/06/09 03:18:22;;;;;;;;;;;14.40;99.90;;;;;;5114277;28;19928;-68
2022/06/09 03:20:49;;;;;;;;;;;14.40;99.90;;;;;;5114230;28;20370;-67
2022/06/09 03:23:16;;;;;;;;;;;14.40;99.90;;;;;;5114167;28;19927;-67
2022/06/09 03:25:43;;;;;;;;;;;14.40;99.90;;;;;;5113293;28;19934;-67
2022/06/09 03:28:10;;;;;;;;;;;14.40;99.90;;;;;;5113668;28;19976;-67
2022/06/09 03:30:39;;;;;;;;;;;14.40;99.90;;;;;;5114278;28;19928;-67
2022/06/09 03:33:06;;;;;;;;;;;14.40;99.90;;;;;;5114041;28;19984;-68
2022/06/09 03:35:33;;;;;;;;;;;14.40;99.90;;;;;;5113782;28;19928;-68
2022/06/09 03:38:00;;;;;;;;;;;14.30;99.90;;;;;;5113787;28;19976;-68
2022/06/09 03:40:28;;;;;;;;;;;14.30;99.90;;;;;;5113770;28;19924;-67
2022/06/09 03:42:55;;;;;;;;;;;14.30;99.90;;;;;;5113742;28;19924;-68
2022/06/09 03:45:22;;;;;;;;;;;14.30;99.90;;;;;;5113430;28;19924;-67
2022/06/09 03:47:50;;;;;;;;;;;14.20;99.90;;;;;;5114391;28;19931;-68
2022/06/09 03:50:18;;;;;;;;;;;14.30;99.90;;;;;;5113310;28;19923;-68
2022/06/09 03:52:45;;;;;;;;;;;14.20;99.90;;;;;;5113631;28;20387;-68
2022/06/09 03:55:12;;;;;;;;;;;14.20;99.90;;;;;;5113125;28;19928;-68
2022/06/09 03:57:39;;;;;;;;;;;14.20;99.90;;;;;;5113563;28;19988;-67
2022/06/09 04:00:08;;;;;;;;;;;14.20;99.90;;;;;;5113320;28;19969;-68
2022/06/09 04:02:35;;;;;;;;;;;14.10;99.90;;;;;;5113412;28;19924;-67
2022/06/09 04:05:03;;;;;;;;;;;14.10;99.90;;;;;;5112969;28;20331;-68
2022/06/09 04:07:29;;;;;;;;;;;14.00;99.90;;;;;;5113284;28;19950;-66
2022/06/09 04:09:56;;;;;;;;;;;14.10;99.90;;;;;;5113076;28;19969;-65
2022/06/09 04:12:24;;;;;;;;;;;14.10;99.90;;;;;;5113269;28;19988;-65
2022/06/09 04:14:51;;;;;;;;;;;14.00;99.90;;;;;;5113189;28;19924;-65
2022/06/09 04:17:18;;;;;;;;;;;13.90;99.90;;;;;;5113070;28;20383;-65
2022/06/09 04:19:45;;;;;;;;;;;13.90;99.90;;;;;;5112921;28;19923;-65
2022/06/09 04:22:13;;;;;;;;;;;13.90;99.90;;;;;;5113075;28;19969;-66
2022/06/09 04:24:40;;;;;;;;;;;13.80;99.90;;;;;;5113073;28;19931;-65
2022/06/09 04:27:07;;;;;;;;;;;13.80;99.90;;;;;;5112907;28;20000;-66
2022/06/09 04:29:34;;;;;;;;;;;13.80;99.90;;;;;;5112730;28;20422;-66
2022/06/09 04:32:00;;;;;;;;;;;13.90;99.90;;;;;;5112759;28;19928;-65
2022/06/09 04:34:27;;;;;;;;;;;13.90;99.90;;;;;;5112899;28;19985;-65
2022/06/09 04:36:54;;;;;;;;;;;13.90;99.90;;;;;;5112368;28;20415;-65
2022/06/09 04:39:22;;;;;;;;;;;14.00;99.90;;;;;;5112539;28;19984;-66
2022/06/09 04:41:49;;;;;;;;;;;14.00;99.90;;;;;;5112779;28;19969;-65
2022/06/09 04:44:16;;;;;;;;;;;14.10;99.90;;;;;;5112623;28;20383;-66
2022/06/09 04:46:42;;;;;;;;;;;14.10;99.90;;;;;;5112226;28;20300;-65
2022/06/09 04:49:09;;;;;;;;;;;14.10;99.90;;;;;;5112414;28;19924;-68
2022/06/09 04:51:36;;;;;;;;;;;14.00;99.90;;;;;;5112717;28;19946;-68
2022/06/09 04:54:03;;;;;;;;;;;14.00;99.90;;;;;;5112516;28;19928;-67
2022/06/09 04:56:31;;;;;;;;;;;14.00;99.90;;;;;;5112234;28;20429;-68
2022/06/09 04:58:58;;;;;;;;;;;14.10;99.90;;;;;;5112324;28;19977;-68
2022/06/09 05:01:25;;;;;;;;;;;14.10;99.90;;;;;;5112515;28;19932;-67
2022/06/09 05:03:52;;;;;;;;;;;14.10;99.90;;;;;;5112207;28;20011;-68
2022/06/09 05:06:20;;;;;;;;;;;14.20;99.90;;;;;;5112172;28;20384;-68
2022/06/09 05:08:47;;;;;;;;;;;14.10;99.90;;;;;;5112177;28;20354;-68
2022/06/09 05:11:14;;;;;;;;;;;14.20;99.90;;;;;;5112668;28;19924;-68
2022/06/09 05:13:42;;;;;;;;;;;14.30;99.90;;;;;;5112119;28;19928;-68
2022/06/09 05:16:09;;;;;;;;;;;14.20;99.90;;;;;;5111859;28;20392;-69
2022/06/09 05:18:37;;;;;;;;;;;14.30;99.90;;;;;;5112064;28;20376;-68
2022/06/09 05:21:05;;;;;;;;;;;14.30;99.90;;;;;;5112351;28;19951;-68
2022/06/09 05:23:32;;;;;;;;;;;14.40;99.90;;;;;;5112142;28;19924;-68
2022/06/09 05:25:59;;;;;;;;;;;14.40;99.90;;;;;;5111981;28;20334;-68
2022/06/09 05:28:27;;;;;;;;;;;14.40;99.90;;;;;;5112202;28;20349;-68
2022/06/09 05:30:55;;;;;;;;;;;14.50;99.90;;;;;;5112031;28;20353;-69
2022/06/09 05:33:22;;;;;;;;;;;14.40;99.90;;;;;;5112126;28;19927;-69
2022/06/09 05:35:50;;;;;;;;;;;14.40;99.90;;;;;;5112127;28;19984;-67
2022/06/09 05:46:19;;;;;;;;;;;14.70;99.90;;;;;;5051896;28;20032;-72
2022/06/09 05:48:46;;;;;;;;;;;14.80;99.90;;;;;;5052379;28;20296;-72
2022/06/09 05:51:14;;;;;;;;;;;14.80;99.90;;;;;;5075423;28;19924;-72
2022/06/09 05:53:41;;;;;;;;;;;14.80;99.90;;;;;;5075689;28;19924;-72
2022/06/09 05:56:08;;;;;;;;;;;14.80;99.90;;;;;;5075536;28;19970;-71
2022/06/09 05:58:36;;;;;;;;;;;14.70;99.90;;;;;;5075781;28;19924;-71
2022/06/09 06:01:03;;;;;;;;;;;14.60;99.90;;;;;;5075473;28;20023;-72
2022/06/09 06:03:32;;;;;;;;;;;14.40;99.90;;;;;;5075529;28;20343;-71
2022/06/09 06:08:42;;;;;;;;;;;14.30;99.90;;;;;;5075307;28;19931;-71
2022/06/09 06:11:09;;;;;;;;;;;14.60;99.90;;;;;;5075375;28;20437;-73
2022/06/09 06:13:36;;;;;;;;;;;14.50;99.90;;;;;;5075341;28;19978;-71
2022/06/09 06:16:03;;;;;;;;;;;14.50;99.90;;;;;;5075102;28;19924;-71
2022/06/09 06:18:30;;;;;;;;;;;14.40;99.90;;;;;;5075066;28;19928;-71
2022/06/09 06:20:58;;;;;;;;;;;14.60;99.90;;;;;;5074980;28;19924;-71
2022/06/09 06:23:25;;;;;;;;;;;14.40;99.90;;;;;;5075188;28;19932;-71
2022/06/09 06:25:52;;;;;;;;;;;14.50;99.90;;;;;;5075064;28;20362;-71
2022/06/09 06:28:20;;;;;;;;;;;14.60;99.90;;;;;;5075217;28;20304;-71
2022/06/09 06:30:47;;;;;;;;;;;14.80;99.90;;;;;;5075456;28;19974;-72
2022/06/09 06:33:14;;;;;;;;;;;14.90;99.90;;;;;;5075291;28;19924;-72
2022/06/09 06:35:40;;;;;;;;;;;15.00;99.90;;;;;;5075160;28;19924;-71
2022/06/09 06:38:12;;;;;;;;;;;15.20;99.90;;;;;;5075066;28;19970;-74
2022/06/09 06:40:39;;;;;;;;;;;15.20;99.90;;;;;;5075469;28;20019;-71
2022/06/09 06:43:06;;;;;;;;;;;15.40;99.90;;;;;;5075110;28;19931;-73
2022/06/09 06:45:32;;;;;;;;;;;15.70;99.90;;;;;;5074996;28;19932;-72
2022/06/09 06:47:59;;;;;;;;;;;15.90;99.90;;;;;;5075313;28;19929;-71
2022/06/09 06:50:26;;;;;;;;;;;16.00;99.90;;;;;;5074763;28;19978;-73
2022/06/09 06:52:53;;;;;;;;;;;15.60;99.90;;;;;;5075234;28;19924;-71
2022/06/09 06:55:22;;;;;;;;;;;16.20;99.90;;;;;;5074807;28;20434;-72
2022/06/09 06:57:49;;;;;;;;;;;16.50;99.90;;;;;;5074723;28;19928;-73
2022/06/09 07:00:18;;;;;;;;;;;16.70;99.90;;;;;;5074930;28;20299;-71
2022/06/09 07:02:45;;;;;;;;;;;16.30;99.90;;;;;;5074601;28;20422;-72
2022/06/09 07:05:12;;;;;;;;;;;16.10;99.90;;;;;;5074914;28;19974;-72
2022/06/09 07:07:40;;;;;;;;;;;16.20;99.90;;;;;;5074549;28;19990;-72
2022/06/09 07:10:08;;;;;;;;;;;16.10;99.90;;;;;;5074598;28;19932;-72
2022/06/09 07:12:36;;;;;;;;;;;16.40;99.90;;;;;;5074822;28;20332;-72
2022/06/09 07:15:03;;;;;;;;;;;16.40;99.90;;;;;;5074398;28;19970;-71
2022/06/09 07:17:30;;;;;;;;;;;16.50;99.90;;;;;;5074488;28;19924;-72
2022/06/09 07:19:57;;;;;;;;;;;16.60;99.90;;;;;;5074334;28;20353;-72
2022/06/09 07:22:24;;;;;;;;;;;16.20;99.90;;;;;;5074267;28;19924;-72
2022/06/09 07:24:55;;;;;;;;;;;16.70;99.90;;;;;;5074214;28;19978;-72
2022/06/09 07:27:22;;;;;;;;;;;17.00;99.90;;;;;;5074499;28;19964;-72
2022/06/09 07:29:50;;;;;;;;;;;17.30;99.90;;;;;;5074073;28;20019;-72
2022/06/09 07:32:18;;;;;;;;;;;17.60;99.90;;;;;;5074769;28;19970;-72
2022/06/09 07:34:44;;;;;;;;;;;17.80;99.90;;;;;;5074115;28;19932;-73
2022/06/09 07:37:12;;;;;;;;;;;18.00;99.90;;;;;;5074389;28;19978;-72
2022/06/09 07:39:38;;;;;;;;;;;18.10;99.90;;;;;;5074320;28;19925;-72
2022/06/09 07:42:06;;;;;;;;;;;18.10;99.90;;;;;;5074199;28;19928;-73
2022/06/09 07:44:33;;;;;;;;;;;18.20;99.90;;;;;;5074265;28;20464;-73
2022/06/09 07:47:01;;;;;;;;;;;18.30;99.90;;;;;;5074195;28;20300;-74
2022/06/09 07:49:28;;;;;;;;;;;18.30;99.90;;;;;;5073640;28;20343;-73
2022/06/09 07:51:54;;;;;;;;;;;18.20;99.90;;;;;;5073770;28;19939;-72
2022/06/09 07:54:22;;;;;;;;;;;18.20;99.90;;;;;;5073492;28;19978;-72
2022/06/09 07:56:48;;;;;;;;;;;18.30;99.90;;;;;;5073717;28;19979;-72
2022/06/09 07:59:15;;;;;;;;;;;18.50;99.90;;;;;;5073245;28;19970;-73
2022/06/09 08:01:42;;;;;;;;;;;18.70;99.90;;;;;;5076477;28;19925;-70
2022/06/09 08:04:10;;;;;;;;;;;19.00;99.90;;;;;;5076773;28;19928;-72
2022/06/09 08:06:37;;;;;;;;;;;19.10;99.90;;;;;;5073435;28;19925;-72
2022/06/09 08:09:04;;;;;;;;;;;19.00;99.90;;;;;;5073527;28;19928;-72
2022/06/09 08:11:33;;;;;;;;;;;18.40;99.90;;;;;;5073621;28;19993;-73
2022/06/09 08:14:01;;;;;;;;;;;18.30;99.90;;;;;;5072781;28;20297;-72
2022/06/09 08:16:28;;;;;;;;;;;18.20;99.90;;;;;;5073436;28;19931;-72
2022/06/09 08:18:55;;;;;;;;;;;18.50;99.90;;;;;;5073087;28;19931;-72
2022/06/09 08:21:23;;;;;;;;;;;19.10;99.90;;;;;;5073081;28;19925;-72
2022/06/09 08:23:50;;;;;;;;;;;18.90;99.90;;;;;;5072926;28;19924;-72
2022/06/09 08:26:17;;;;;;;;;;;19.70;99.90;;;;;;5073271;28;20288;-72
2022/06/09 08:28:44;;;;;;;;;;;20.20;99.90;;;;;;5072800;28;19924;-72
2022/06/09 08:31:11;;;;;;;;;;;19.30;99.90;;;;;;5072789;28;19986;-72
2022/06/09 08:33:38;;;;;;;;;;;18.80;99.90;;;;;;5072718;28;19924;-72
2022/06/09 08:36:05;;;;;;;;;;;18.80;99.90;;;;;;5072589;28;20018;-72
2022/06/09 08:38:33;;;;;;;;;;;19.10;99.90;;;;;;5072736;28;20012;-72
2022/06/09 08:41:02;;;;;;;;;;;19.20;99.90;;;;;;5072575;28;19928;-72
2022/06/09 08:43:34;;;;;;;;;;;19.10;99.90;;;;;;5072396;28;20034;-73
2022/06/09 08:46:14;;;;;;;;;;;19.00;99.90;;;;;;5072338;28;19931;-72
2022/06/09 08:48:43;;;;;;;;;;;19.00;99.90;;;;;;5072376;28;20339;-73
2022/06/09 08:51:12;;;;;;;;;;;18.80;99.90;;;;;;5072643;28;19982;-72
2022/06/09 08:53:42;;;;;;;;;;;18.80;99.90;;;;;;5072331;28;19928;-72
2022/06/09 08:56:13;;;;;;;;;;;18.80;99.90;;;;;;5072339;28;20471;-72
2022/06/09 08:58:41;;;;;;;;;;;18.60;99.90;;;;;;5072209;28;19974;-73
2022/06/09 09:01:19;;;;;;;;;;;19.00;99.90;;;;;;5072227;28;19925;-72
2022/06/09 09:03:48;;;;;;;;;;;20.40;99.90;;;;;;5072511;28;19932;-72
2022/06/09 09:06:22;;;;;;;;;;;20.70;99.90;;;;;;5071885;28;19928;-73
2022/06/09 09:08:51;;;;;;;;;;;21.30;99.90;;;;;;5072190;28;19928;-72
2022/06/09 09:11:23;;;;;;;;;;;20.60;99.90;;;;;;5072091;28;19924;-72
2022/06/09 09:13:54;;;;;;;;;;;19.80;99.90;;;;;;5072739;28;19924;-72
2022/06/09 09:16:22;;;;;;;;;;;19.50;99.90;;;;;;5071805;28;19936;-72
2022/06/09 09:18:53;;;;;;;;;;;19.20;99.90;;;;;;5071896;28;20396;-72
2022/06/09 09:21:27;;;;;;;;;;;18.90;99.90;;;;;;5072202;28;20200;-72
2022/06/09 09:24:00;;;;;;;;;;;19.00;99.90;;;;;;5071977;28;19928;-72
2022/06/09 09:26:29;;;;;;;;;;;19.50;99.90;;;;;;5075966;28;19928;-72
2022/06/09 09:29:02;;;;;;;;;;;19.40;99.90;;;;;;5075933;28;19928;-73
2022/06/09 09:31:34;;;;;;;;;;;19.90;99.90;;;;;;5076570;28;19979;-72
2022/06/09 09:34:03;;;;;;;;;;;19.90;99.90;;;;;;5076483;28;19990;-72
2022/06/09 09:36:31;;;;;;;;;;;19.80;99.90;;;;;;5075977;28;19924;-72
2022/06/09 09:39:03;;;;;;;;;;;19.90;99.90;;;;;;5075770;28;20001;-72
2022/06/09 09:41:33;;;;;;;;;;;19.50;99.90;;;;;;5075896;28;20394;-72
2022/06/09 09:44:00;;;;;;;;;;;18.80;99.90;;;;;;5076192;28;19924;-72
2022/06/09 09:46:30;;;;;;;;;;;18.80;99.90;;;;;;5075550;28;19925;-72
2022/06/09 09:48:58;;;;;;;;;;;19.10;99.90;;;;;;5076165;28;19924;-72
2022/06/09 09:51:32;;;;;;;;;;;18.90;99.90;;;;;;5076564;28;20388;-72
2022/06/09 09:54:06;;;;;;;;;;;20.20;99.90;;;;;;5076544;28;19929;-72
2022/06/09 09:56:34;;;;;;;;;;;19.80;99.90;;;;;;5075517;28;19924;-72
2022/06/09 09:59:03;;;;;;;;;;;20.20;99.90;;;;;;5075756;28;19930;-72
2022/06/09 10:01:34;;;;;;;;;;;20.30;99.90;;;;;;5075828;28;19924;-72
2022/06/09 10:09:34;;;;;;;;;;;19.90;99.90;;;;;;5075230;28;19930;-72
2022/06/09 10:12:04;;;;;;;;;;;19.90;99.90;;;;;;5075178;28;19986;-72
2022/06/09 10:14:37;;;;;;;;;;;19.50;99.90;;;;;;5075229;28;19982;-72
2022/06/09 10:17:05;;;;;;;;;;;19.20;99.90;;;;;;5074984;28;19947;-72
2022/06/09 10:19:34;;;;;;;;;;;19.10;99.90;;;;;;5074969;28;20003;-72
2022/06/09 10:22:01;;;;;;;;;;;19.60;99.90;;;;;;5075119;28;20046;-73
2022/06/09 10:24:33;;;;;;;;;;;19.50;99.90;;;;;;5074907;28;19924;-74
2022/06/09 10:27:01;;;;;;;;;;;20.00;99.90;;;;;;5074942;28;19924;-72
2022/06/09 10:29:36;;;;;;;;;;;20.50;99.90;;;;;;5074882;28;19978;-72
2022/06/09 10:32:05;;;;;;;;;;;19.50;99.90;;;;;;5074810;28;19979;-74
2022/06/09 10:34:35;;;;;;;;;;;20.50;99.90;;;;;;5074945;28;19929;-72
2022/06/09 10:37:04;;;;;;;;;;;21.30;99.90;;;;;;5074352;28;19928;-72
2022/06/09 10:39:37;;;;;;;;;;;21.90;99.60;;;;;;5074460;28;19979;-72
2022/06/09 10:42:11;;;;;;;;;;;22.00;99.60;;;;;;5074203;28;20351;-73
2022/06/09 10:44:41;;;;;;;;;;;22.70;99.50;;;;;;5074557;28;20373;-72
2022/06/09 10:55:37;;;;;;;;;;;23.90;96.40;;;;;;5074137;28;19927;-72
2022/06/09 10:58:10;;;;;;;;;;;23.90;95.90;;;;;;5074314;28;19928;-72
2022/06/09 11:00:38;;;;;;;;;;;23.80;96.30;;;;;;5073988;28;20384;-72
2022/06/09 11:03:10;;;;;;;;;;;23.80;96.50;;;;;;5073956;28;20392;-73
2022/06/09 11:05:41;;;;;;;;;;;23.50;96.70;;;;;;5073799;28;19924;-74
2022/06/09 11:08:11;;;;;;;;;;;23.10;96.80;;;;;;5073959;28;19928;-73
2022/06/09 11:10:45;;;;;;;;;;;22.90;96.70;;;;;;5073759;28;20002;-72
2022/06/09 11:13:24;;;;;;;;;;;22.70;95.80;;;;;;5073914;28;19979;-74
2022/06/09 11:15:56;;;;;;;;;;;22.80;95.90;;;;;;5073822;28;19928;-72
2022/06/09 11:18:28;;;;;;;;;;;22.80;95.40;;;;;;5073832;28;19928;-72
2022/06/09 11:21:09;;;;;;;;;;;23.20;95.60;;;;;;5074140;28;19924;-72
2022/06/09 11:23:41;;;;;;;;;;;22.20;95.20;;;;;;5073807;28;19970;-73
2022/06/09 11:26:12;;;;;;;;;;;21.90;95.50;;;;;;5073574;28;19925;-72
2022/06/09 11:28:44;;;;;;;;;;;21.50;95.30;;;;;;5073978;28;19946;-72
2022/06/09 11:31:29;;;;;;;;;;;21.60;95.30;;;;;;5073860;28;19924;-73
2022/06/09 11:34:03;;;;;;;;;;;22.00;95.50;;;;;;5073719;28;19925;-72
2022/06/09 11:36:33;;;;;;;;;;;22.20;96.10;;;;;;5073656;28;19928;-72
2022/06/09 11:39:06;;;;;;;;;;;21.90;95.60;;;;;;5073353;28;20067;-74
2022/06/09 11:44:09;;;;;;;;;;;22.50;94.90;;;;;;5051677;28;20300;-72
2022/06/09 11:46:38;;;;;;;;;;;22.70;95.00;;;;;;5053067;28;19979;-72
2022/06/09 11:49:06;;;;;;;;;;;23.40;94.20;;;;;;5056342;28;19928;-72
2022/06/09 11:51:34;;;;;;;;;;;24.30;94.20;;;;;;5073236;28;20392;-72
2022/06/09 11:54:02;;;;;;;;;;;24.60;93.20;;;;;;5073304;28;19978;-72
2022/06/09 11:56:36;;;;;;;;;;;24.90;92.80;;;;;;5072917;28;20370;-72
2022/06/09 11:59:15;;;;;;;;;;;25.00;94.00;;;;;;5073381;28;19930;-72
2022/06/09 12:02:08;;;;;;;;;;;25.10;93.40;;;;;;5073029;28;19931;-72
2022/06/09 12:04:42;;;;;;;;;;;24.80;93.50;;;;;;5058587;28;19924;-72
2022/06/09 12:07:15;;;;;;;;;;;25.10;92.30;;;;;;5072954;28;19924;-72
2022/06/09 12:09:45;;;;;;;;;;;24.90;92.00;;;;;;5072951;28;19943;-72
2022/06/09 12:12:27;;;;;;;;;;;24.40;90.20;;;;;;5073149;28;19928;-72
2022/06/09 12:15:10;;;;;;;;;;;24.80;90.30;;;;;;5071049;28;19925;-72
2022/06/09 12:17:37;;;;;;;;;;;24.20;90.70;;;;;;5072912;28;19924;-72
2022/06/09 12:20:08;;;;;;;;;;;24.00;90.60;;;;;;5072852;28;19936;-72
2022/06/09 12:22:47;;;;;;;;;;;23.70;91.20;;;;;;5073160;28;19928;-72
2022/06/09 12:25:26;;;;;;;;;;;24.20;91.10;;;;;;5072378;28;19924;-72
2022/06/09 12:27:54;;;;;;;;;;;24.10;91.40;;;;;;5073000;28;20340;-70
2022/06/09 12:30:27;;;;;;;;;;;24.00;92.00;;;;;;5072856;28;19979;-73
2022/06/09 12:32:56;;;;;;;;;;;23.40;92.20;;;;;;5072710;28;19924;-71
2022/06/09 12:35:27;;;;;;;;;;;23.60;92.30;;;;;;5054035;28;22011;-71
2022/06/09 12:37:57;;;;;;;;;;;23.40;92.20;;;;;;5072459;28;20011;-71
2022/06/09 12:40:25;;;;;;;;;;;23.70;92.70;;;;;;5072324;28;20269;-71
2022/06/09 12:42:54;;;;;;;;;;;23.40;92.80;;;;;;5072405;28;20388;-71
2022/06/09 12:45:22;;;;;;;;;;;23.70;92.50;;;;;;5072095;28;19924;-71
2022/06/09 12:47:55;;;;;;;;;;;23.70;92.30;;;;;;5072381;28;19994;-71
2022/06/09 12:50:24;;;;;;;;;;;24.20;91.90;;;;;;5072248;28;19924;-71
2022/06/09 12:52:52;;;;;;;;;;;24.90;91.20;;;;;;5072271;28;20399;-71
2022/06/09 12:55:20;;;;;;;;;;;25.30;91.10;;;;;;5071887;28;19928;-71
2022/06/09 12:57:49;;;;;;;;;;;25.20;91.20;;;;;;5072330;28;19924;-71
2022/06/09 13:00:18;;;;;;;;;;;24.90;91.70;;;;;;5071965;28;19978;-71
2022/06/09 13:02:45;;;;;;;;;;;24.40;91.90;;;;;;5072396;28;19947;-71
2022/06/09 13:05:19;;;;;;;;;;;24.80;91.60;;;;;;5071703;28;19925;-71
2022/06/09 13:07:50;;;;;;;;;;;24.20;92.30;;;;;;5072058;28;20407;-71
2022/06/09 13:10:19;;;;;;;;;;;24.50;92.60;;;;;;5071894;28;19971;-71
2022/06/09 13:12:52;;;;;;;;;;;24.30;93.00;;;;;;5072138;28;20016;-71
2022/06/09 13:15:26;;;;;;;;;;;24.10;93.50;;;;;;5071702;28;19932;-71
2022/06/09 13:17:53;;;;;;;;;;;23.90;93.50;;;;;;5071815;28;19960;-71
2022/06/09 13:20:23;;;;;;;;;;;23.80;94.00;;;;;;5071930;28;20304;-71
2022/06/09 13:22:49;;;;;;;;;;;24.20;94.30;;;;;;5072045;28;19924;-71
2022/06/09 13:25:19;;;;;;;;;;;24.60;94.20;;;;;;5071560;28;19979;-71
2022/06/09 13:27:48;;;;;;;;;;;25.10;93.90;;;;;;5071746;28;20000;-72
2022/06/09 13:30:31;;;;;;;;;;;25.40;93.20;;;;;;5071234;28;20011;-72
2022/06/09 13:32:58;;;;;;;;;;;24.30;93.00;;;;;;5071769;28;20458;-73
2022/06/09 13:35:29;;;;;;;;;;;23.70;93.80;;;;;;5071229;28;20434;-72
2022/06/09 13:38:04;;;;;;;;;;;24.20;93.30;;;;;;5071459;28;19924;-72
2022/06/09 13:40:41;;;;;;;;;;;24.60;92.40;;;;;;5071669;28;19929;-72
2022/06/09 13:43:16;;;;;;;;;;;24.10;92.00;;;;;;5071603;28;19932;-72
2022/06/09 13:45:49;;;;;;;;;;;24.00;92.30;;;;;;5071271;28;19925;-72
2022/06/09 13:48:17;;;;;;;;;;;23.90;92.00;;;;;;5071596;28;19929;-72
2022/06/09 13:50:47;;;;;;;;;;;24.20;92.20;;;;;;5071691;28;20314;-72
2022/06/09 13:53:16;;;;;;;;;;;25.20;91.80;;;;;;5071411;28;19971;-72
2022/06/09 13:55:43;;;;;;;;;;;25.00;91.40;;;;;;5071052;28;19971;-72
2022/06/09 13:58:10;;;;;;;;;;;24.90;91.20;;;;;;5071097;28;20011;-72
2022/06/09 14:00:40;;;;;;;;;;;25.40;91.30;;;;;;5071231;28;19972;-72
2022/06/09 14:03:08;;;;;;;;;;;24.60;91.10;;;;;;5071510;28;20031;-72
2022/06/09 14:05:37;;;;;;;;;;;25.20;91.70;;;;;;5071050;28;20281;-72
2022/06/09 14:08:06;;;;;;;;;;;25.70;90.70;;;;;;5071411;28;19925;-71
2022/06/09 14:10:33;;;;;;;;;;;25.30;91.10;;;;;;5072265;28;19924;-71
2022/06/09 14:13:00;;;;;;;;;;;24.90;91.70;;;;;;5075214;28;20442;-71
2022/06/09 14:15:28;;;;;;;;;;;24.90;91.50;;;;;;5074624;28;20030;-71
2022/06/09 14:17:56;;;;;;;;;;;25.30;91.80;;;;;;5075187;28;20007;-71
2022/06/09 14:20:24;;;;;;;;;;;25.40;91.40;;;;;;5074823;28;19931;-71
2022/06/09 14:22:51;;;;;;;;;;;25.40;91.10;;;;;;5074698;28;19971;-71
2022/06/09 14:25:19;;;;;;;;;;;25.30;91.30;;;;;;5074581;28;19929;-71
2022/06/09 14:27:46;;;;;;;;;;;24.90;91.80;;;;;;5074739;28;19929;-71
2022/06/09 14:30:14;;;;;;;;;;;24.20;92.20;;;;;;5074433;28;19974;-71
2022/06/09 14:32:41;;;;;;;;;;;24.80;93.00;;;;;;5074706;28;19935;-71
2022/06/09 14:35:08;;;;;;;;;;;23.20;92.10;;;;;;5074268;28;20304;-71
2022/06/09 14:37:36;;;;;;;;;;;23.10;91.80;;;;;;5074730;28;20407;-71
2022/06/09 14:40:04;;;;;;;;;;;23.80;92.70;;;;;;5074242;28;19970;-71
2022/06/09 14:42:32;;;;;;;;;;;24.30;92.70;;;;;;5074248;28;19928;-71
2022/06/09 14:44:59;;;;;;;;;;;24.10;92.40;;;;;;5074239;28;20338;-71
2022/06/09 14:47:25;;;;;;;;;;;23.30;93.60;;;;;;5074361;28;19935;-71
2022/06/09 14:49:52;;;;;;;;;;;23.80;93.30;;;;;;5074448;28;19924;-71
2022/06/09 14:52:19;;;;;;;;;;;24.10;93.20;;;;;;5074468;28;19978;-71
2022/06/09 14:54:47;;;;;;;;;;;23.90;93.60;;;;;;5074192;28;20346;-71